Time;durP1;ratioP1;P1;durP2;ratioP2;P2;SDS_P1;SDS_P2;PMS_P1;PMS_P2;Temp;Humidity;BMP_temperature;BMP_pressure;BME280_temperature;BME280_humidity;BME280_pressure;Samples;Min_cycle;Max_cycle;Signal;HPM_P1;HPM_P2
2022/01/08 00:02:36;;;;;;;;;;;;;;;-1.02;82.24;96066.56;10287515;28;96788;-80
2022/01/08 00:07:39;;;;;;;;;;;;;;;-0.96;81.34;96060.28;10287195;28;96881;-80
2022/01/08 00:12:43;;;;;;;;;;;;;;;-0.92;81.11;96066.94;10291855;28;96920;-80
2022/01/08 00:17:46;;;;;;;;;;;;;;;-0.89;80.92;96066.78;10301557;28;96989;-80
2022/01/08 00:22:51;;;;;;;;;;;;;;;-0.88;81.41;96053.03;10298989;28;96825;-80
2022/01/08 00:27:55;;;;;;;;;;;;;;;-0.89;81.93;96056.50;10291824;28;96841;-80
2022/01/08 00:32:59;;;;;;;;;;;;;;;-0.85;81.97;96040.03;10299529;28;97394;-80
2022/01/08 00:38:02;;;;;;;;;;;;;;;-0.86;81.34;96035.00;10299144;28;97006;-80
2022/01/08 00:43:06;;;;;;;;;;;;;;;-0.86;81.93;96022.97;10291180;28;97479;-80
2022/01/08 00:48:08;;;;;;;;;;;;;;;-0.89;81.90;96028.31;10298223;28;96880;-79
2022/01/08 00:53:11;;;;;;;;;;;;;;;-0.91;81.80;96033.50;10297698;28;96955;-80
2022/01/08 00:58:15;;;;;;;;;;;;;;;-0.85;81.96;96026.41;10298597;28;96785;-80
2022/01/08 01:03:17;;;;;;;;;;;;;;;-0.85;82.06;96027.22;10296843;28;96919;-80
2022/01/08 01:08:20;;;;;;;;;;;;;;;-0.87;82.74;96023.91;10299479;28;97726;-80
2022/01/08 01:13:24;;;;;;;;;;;;;;;-0.85;82.04;96022.09;10296972;28;97807;-80
2022/01/08 01:18:27;;;;;;;;;;;;;;;-0.85;82.77;96005.88;10295364;28;97082;-80
2022/01/08 01:23:34;;;;;;;;;;;;;;;-0.89;82.73;95987.28;10300055;28;96835;-80
2022/01/08 01:28:45;;;;;;;;;;;;;;;-0.88;82.73;96022.25;10297507;28;96732;-79
2022/01/08 01:49:50;;;;;;;;;;;;;;;-0.99;83.32;96022.81;10297873;28;96772;-78
2022/01/08 01:54:53;;;;;;;;;;;;;;;-1.02;83.11;96035.00;10294692;28;98732;-78
2022/01/08 01:59:58;;;;;;;;;;;;;;;-1.01;83.18;96037.47;10298172;28;96682;-77
2022/01/08 02:05:01;;;;;;;;;;;;;;;-1.00;83.17;96022.91;10296066;28;96959;-78
2022/01/08 02:10:04;;;;;;;;;;;;;;;-1.05;82.80;96041.09;10295496;28;97157;-77
2022/01/08 02:15:08;;;;;;;;;;;;;;;-1.04;83.64;96026.56;10296072;28;96942;-77
2022/01/08 02:20:13;;;;;;;;;;;;;;;-1.06;83.48;96033.50;10295329;28;96799;-77
2022/01/08 02:25:21;;;;;;;;;;;;;;;-1.03;83.61;96003.41;10295492;28;96693;-76
2022/01/08 02:30:23;;;;;;;;;;;;;;;-0.99;83.27;95993.81;10294261;28;97156;-76
2022/01/08 02:35:27;;;;;;;;;;;;;;;-0.94;82.70;95994.38;10296675;28;96965;-76
2022/01/08 02:40:30;;;;;;;;;;;;;;;-0.88;82.92;95970.94;10297072;28;96829;-76
2022/01/08 02:45:33;;;;;;;;;;;;;;;-0.85;82.50;95970.78;10292126;28;96844;-76
2022/01/08 02:50:37;;;;;;;;;;;;;;;-0.84;83.15;95997.25;10298512;28;96781;-76
2022/01/08 02:55:39;;;;;;;;;;;;;;;-0.81;82.91;96003.03;10293337;28;97496;-77
2022/01/08 03:00:42;;;;;;;;;;;;;;;-0.81;83.13;96022.75;10291342;28;98231;-76
2022/01/08 03:05:46;;;;;;;;;;;;;;;-0.73;82.84;96016.28;10297823;28;96985;-76
2022/01/08 03:10:49;;;;;;;;;;;;;;;-0.74;82.27;96065.09;10294301;28;97047;-76
2022/01/08 03:15:51;;;;;;;;;;;;;;;-0.75;83.01;96107.88;10292061;28;96721;-77
2022/01/08 03:21:11;;;;;;;;;;;;;;;-0.64;82.49;96073.13;10295778;28;96673;-77
2022/01/08 03:26:14;;;;;;;;;;;;;;;-0.67;82.11;96039.94;10294267;28;96887;-77
2022/01/08 03:31:17;;;;;;;;;;;;;;;-0.69;82.53;96059.72;10294960;28;96964;-77
2022/01/08 03:36:23;;;;;;;;;;;;;;;-0.64;82.03;96050.03;10291574;28;98097;-77
2022/01/08 03:41:25;;;;;;;;;;;;;;;-0.72;82.01;96064.13;10294931;28;97726;-77
2022/01/08 03:46:33;;;;;;;;;;;;;;;-0.73;82.70;96080.41;10292425;28;96874;-77
2022/01/08 03:51:37;;;;;;;;;;;;;;;-0.68;81.99;96056.25;10289118;28;96774;-77
2022/01/08 03:56:40;;;;;;;;;;;;;;;-0.66;82.22;96080.09;10288248;28;97011;-77
2022/01/08 04:01:43;;;;;;;;;;;;;;;-0.65;81.64;96097.13;10294786;28;99774;-77
2022/01/08 04:06:47;;;;;;;;;;;;;;;-0.72;81.89;96114.56;10289267;28;96924;-77
2022/01/08 04:11:50;;;;;;;;;;;;;;;-0.78;81.85;96104.66;10295114;28;96788;-77
2022/01/08 04:16:54;;;;;;;;;;;;;;;-0.78;82.07;96100.34;10292881;28;96771;-77
2022/01/08 04:22:09;;;;;;;;;;;;;;;-0.72;81.06;96059.00;10290839;28;96783;-77
2022/01/08 04:27:12;;;;;;;;;;;;;;;-0.58;81.36;96080.47;10275954;28;96795;-77
2022/01/08 04:32:15;;;;;;;;;;;;;;;-0.54;80.81;96084.56;10294904;28;96854;-77
2022/01/08 04:37:19;;;;;;;;;;;;;;;-0.51;80.73;96076.69;10292456;28;96891;-77
2022/01/08 04:42:22;;;;;;;;;;;;;;;-0.54;80.74;96107.66;10290816;28;96946;-78
2022/01/08 04:47:25;;;;;;;;;;;;;;;-0.54;80.92;96112.78;10294113;28;98282;-77
2022/01/08 04:52:29;;;;;;;;;;;;;;;-0.50;80.65;96114.25;10291454;28;96801;-77
2022/01/08 04:57:31;;;;;;;;;;;;;;;-0.44;80.76;96142.16;10289149;28;96758;-78
2022/01/08 05:02:34;;;;;;;;;;;;;;;-0.45;81.11;96114.84;10301770;28;97006;-78
2022/01/08 05:07:38;;;;;;;;;;;;;;;-0.51;81.39;96128.03;10298173;28;96949;-78
2022/01/08 05:12:41;;;;;;;;;;;;;;;-0.55;81.04;96121.38;10295118;28;97962;-78
2022/01/08 05:17:47;;;;;;;;;;;;;;;-0.58;82.52;96152.31;10302458;28;96973;-78
2022/01/08 05:22:53;;;;;;;;;;;;;;;-0.57;81.41;96141.16;10297947;28;97430;-77
2022/01/08 05:27:56;;;;;;;;;;;;;;;-0.51;80.83;96153.69;10295438;28;96733;-77
2022/01/08 05:32:58;;;;;;;;;;;;;;;-0.50;80.92;96149.38;10298256;28;96963;-78
2022/01/08 05:38:04;;;;;;;;;;;;;;;-0.47;81.16;96167.19;10297493;28;97010;-77
2022/01/08 05:43:07;;;;;;;;;;;;;;;-0.58;80.86;96172.84;10297740;28;96789;-77
2022/01/08 05:48:10;;;;;;;;;;;;;;;-0.52;80.85;96159.72;10295768;28;97194;-78
2022/01/08 05:53:14;;;;;;;;;;;;;;;-0.48;80.68;96168.06;10298158;28;96869;-77
2022/01/08 05:58:16;;;;;;;;;;;;;;;-0.62;81.08;96186.75;10296645;28;96700;-77
2022/01/08 06:03:19;;;;;;;;;;;;;;;-0.61;81.33;96188.44;10295123;28;96860;-77
2022/01/08 06:08:23;;;;;;;;;;;;;;;-0.59;81.71;96207.13;10297388;28;97222;-77
2022/01/08 06:13:26;;;;;;;;;;;;;;;-0.53;81.45;96209.38;10296317;28;96908;-77
2022/01/08 06:18:30;;;;;;;;;;;;;;;-0.51;81.52;96215.28;10292209;28;97365;-77
2022/01/08 06:23:34;;;;;;;;;;;;;;;-0.58;81.87;96224.16;10299396;28;96711;-77
2022/01/08 06:28:37;;;;;;;;;;;;;;;-0.58;81.17;96235.28;10295867;28;96919;-77
2022/01/08 06:33:40;;;;;;;;;;;;;;;-0.56;80.85;96236.03;10292051;28;97107;-77
2022/01/08 06:38:44;;;;;;;;;;;;;;;-0.50;80.45;96232.31;10299038;28;96981;-77
2022/01/08 06:43:47;;;;;;;;;;;;;;;-0.52;80.80;96224.69;10295468;28;96854;-77
2022/01/08 06:48:50;;;;;;;;;;;;;;;-0.57;80.50;96236.09;10292400;28;96955;-77
2022/01/08 06:53:54;;;;;;;;;;;;;;;-0.61;80.85;96244.88;10297846;28;98685;-77
2022/01/08 06:58:57;;;;;;;;;;;;;;;-0.64;80.74;96255.28;10295464;28;98100;-77
2022/01/08 07:04:01;;;;;;;;;;;;;;;-0.67;80.98;96260.56;10293399;28;97069;-77
2022/01/08 07:09:06;;;;;;;;;;;;;;;-0.71;80.86;96255.59;10294304;28;97142;-77
2022/01/08 07:14:08;;;;;;;;;;;;;;;-0.81;80.49;96256.16;10296494;28;97349;-77
2022/01/08 07:19:11;;;;;;;;;;;;;;;-0.93;80.47;96272.97;10294041;28;96771;-77
2022/01/08 07:24:15;;;;;;;;;;;;;;;-1.08;80.95;96280.53;10292284;28;96702;-77
2022/01/08 07:29:18;;;;;;;;;;;;;;;-1.19;81.33;96284.53;10295168;28;96742;-77
2022/01/08 07:34:23;;;;;;;;;;;;;;;-1.24;81.00;96283.91;10293629;28;97100;-77
2022/01/08 07:39:27;;;;;;;;;;;;;;;-1.27;81.64;96292.59;10290909;28;96997;-77
2022/01/08 07:44:30;;;;;;;;;;;;;;;-1.17;81.17;96293.81;10296438;28;96814;-77
2022/01/08 07:49:33;;;;;;;;;;;;;;;-1.04;81.03;96311.16;10294031;28;97174;-77
2022/01/08 07:54:37;;;;;;;;;;;;;;;-0.98;80.75;96310.84;10289225;28;96728;-77
2022/01/08 07:59:42;;;;;;;;;;;;;;;-0.93;80.73;96320.00;10294897;28;96733;-78
2022/01/08 08:04:45;;;;;;;;;;;;;;;-0.86;81.17;96307.66;10293731;28;98546;-78
2022/01/08 08:09:49;;;;;;;;;;;;;;;-0.78;80.89;96320.94;10290196;28;98970;-77
2022/01/08 08:14:52;;;;;;;;;;;;;;;-0.75;81.19;96328.50;10294757;28;96745;-78
2022/01/08 08:19:54;;;;;;;;;;;;;;;-0.73;81.42;96329.25;10292832;28;96749;-78
2022/01/08 08:24:58;;;;;;;;;;;;;;;-0.82;81.66;96336.56;10292288;28;97800;-77
2022/01/08 08:30:01;;;;;;;;;;;;;;;-0.69;81.65;96323.97;10292864;28;96871;-77
2022/01/08 08:35:04;;;;;;;;;;;;;;;-0.86;82.13;96328.19;10298062;28;96909;-78
2022/01/08 08:40:09;;;;;;;;;;;;;;;-0.75;82.18;96318.22;10294388;28;97334;-77
2022/01/08 08:45:13;;;;;;;;;;;;;;;-0.73;81.60;96336.94;10293030;28;97269;-78
2022/01/08 08:50:16;;;;;;;;;;;;;;;-0.67;82.07;96337.53;10296148;28;96988;-77
2022/01/08 08:55:21;;;;;;;;;;;;;;;-0.48;81.88;96330.56;10298477;28;97058;-77
2022/01/08 09:00:23;;;;;;;;;;;;;;;-0.34;81.62;96333.28;10295686;28;98060;-77
2022/01/08 09:05:30;;;;;;;;;;;;;;;-0.17;81.80;96340.09;10300426;28;96919;-77
2022/01/08 09:10:34;;;;;;;;;;;;;;;-0.05;81.33;96330.94;10295155;28;96854;-78
2022/01/08 09:15:41;;;;;;;;;;;;;;;0.03;81.30;96339.06;10295333;28;97039;-77
2022/01/08 09:20:44;;;;;;;;;;;;;;;0.08;81.51;96350.81;10292379;28;96908;-77
2022/01/08 09:25:48;;;;;;;;;;;;;;;0.17;81.10;96342.66;10293158;28;96894;-77
2022/01/08 09:30:50;;;;;;;;;;;;;;;0.18;81.32;96350.25;10291556;28;96813;-77
2022/01/08 09:35:54;;;;;;;;;;;;;;;0.22;81.96;96353.53;10299237;28;97003;-77
2022/01/08 09:40:58;;;;;;;;;;;;;;;0.33;81.67;96356.31;10295730;28;96728;-77
2022/01/08 09:46:01;;;;;;;;;;;;;;;0.32;82.26;96364.94;10295202;28;96871;-77
2022/01/08 09:51:03;;;;;;;;;;;;;;;0.45;81.59;96361.75;10298469;28;99720;-78
2022/01/08 09:56:07;;;;;;;;;;;;;;;0.53;81.45;96362.13;10291366;28;96983;-78
2022/01/08 10:01:22;;;;;;;;;;;;;;;0.53;81.82;96359.56;10294315;28;96828;-77
2022/01/08 10:06:26;;;;;;;;;;;;;;;0.58;81.65;96360.13;10279103;28;96919;-78
2022/01/08 10:11:31;;;;;;;;;;;;;;;0.72;81.84;96367.94;10298111;28;96944;-78
2022/01/08 10:21:55;;;;;;;;;;;;;;;0.94;81.66;96354.72;10293795;28;96717;-78
2022/01/08 10:27:03;;;;;;;;;;;;;;;0.96;82.12;96349.47;10296642;28;98043;-78
2022/01/08 10:32:07;;;;;;;;;;;;;;;0.93;82.20;96349.66;10291760;28;98094;-78
2022/01/08 10:37:13;;;;;;;;;;;;;;;0.92;81.98;96335.16;10295182;28;97145;-78
2022/01/08 10:42:18;;;;;;;;;;;;;;;0.78;82.41;96334.16;10290321;28;96840;-77
2022/01/08 10:47:21;;;;;;;;;;;;;;;0.82;82.79;96334.81;10293064;28;97105;-77
2022/01/08 10:52:24;;;;;;;;;;;;;;;0.90;82.36;96319.78;10294082;28;97003;-77
2022/01/08 10:57:33;;;;;;;;;;;;;;;0.86;82.84;96322.63;10291266;28;96936;-76
2022/01/08 11:02:36;;;;;;;;;;;;;;;0.88;82.17;96313.06;10297173;28;96886;-79
2022/01/08 11:07:41;;;;;;;;;;;;;;;1.09;82.15;96303.31;10296017;28;96994;-78
2022/01/08 11:12:47;;;;;;;;;;;;;;;1.25;81.73;96308.41;10290923;28;96901;-78
2022/01/08 11:17:50;;;;;;;;;;;;;;;1.31;81.84;96302.91;10295842;28;96900;-78
2022/01/08 11:23:07;;;;;;;;;;;;;;;1.25;82.49;96292.97;10292067;28;96919;-79
2022/01/08 11:28:13;;;;;;;;;;;;;;;1.35;82.40;96279.47;10293804;28;99561;-79
2022/01/08 11:33:19;;;;;;;;;;;;;;;1.50;82.55;96266.59;10275102;28;96690;-79
2022/01/08 11:38:23;;;;;;;;;;;;;;;1.50;81.96;96261.44;10294314;28;96851;-79
2022/01/08 11:43:28;;;;;;;;;;;;;;;1.46;82.83;96260.81;10293350;28;97205;-79
2022/01/08 11:48:32;;;;;;;;;;;;;;;1.44;82.31;96260.06;10291615;28;96708;-79
2022/01/08 11:53:45;;;;;;;;;;;;;;;1.50;81.83;96257.13;10291610;28;96821;-79
2022/01/08 11:59:01;;;;;;;;;;;;;;;1.51;82.12;96242.53;10295842;28;96862;-79
2022/01/08 12:04:05;;;;;;;;;;;;;;;1.48;82.48;96228.06;10292400;28;96970;-79
2022/01/08 12:09:19;;;;;;;;;;;;;;;1.59;82.52;96232.59;10294014;28;96840;-79
2022/01/08 12:14:24;;;;;;;;;;;;;;;1.61;81.88;96211.88;10297947;28;96948;-79
2022/01/08 12:19:28;;;;;;;;;;;;;;;1.69;82.40;96209.66;10295946;28;96941;-79
2022/01/08 12:24:38;;;;;;;;;;;;;;;1.81;82.30;96201.19;10296987;28;97080;-79
2022/01/08 12:29:43;;;;;;;;;;;;;;;1.87;82.24;96200.81;10294075;28;96966;-79
2022/01/08 12:34:49;;;;;;;;;;;;;;;1.92;81.74;96185.06;10298955;28;97995;-79
2022/01/08 12:39:53;;;;;;;;;;;;;;;1.86;82.04;96175.16;10296901;28;96690;-79
2022/01/08 12:45:01;;;;;;;;;;;;;;;1.94;82.49;96158.28;10300988;28;96711;-79
2022/01/08 12:50:17;;;;;;;;;;;;;;;2.01;81.55;96152.72;10299195;28;97256;-79
2022/01/08 12:55:20;;;;;;;;;;;;;;;2.00;81.90;96133.88;10298366;28;96875;-79
2022/01/08 13:00:24;;;;;;;;;;;;;;;2.14;81.75;96125.28;10295885;28;97571;-79
2022/01/08 13:05:27;;;;;;;;;;;;;;;2.09;81.46;96104.13;10299371;28;97258;-79
2022/01/08 13:10:31;;;;;;;;;;;;;;;2.05;80.85;96107.84;10298550;28;97139;-79
2022/01/08 13:15:35;;;;;;;;;;;;;;;2.06;81.62;96094.00;10294273;28;96838;-79
2022/01/08 13:20:38;;;;;;;;;;;;;;;2.12;81.23;96088.47;10300815;28;96871;-79
2022/01/08 13:25:41;;;;;;;;;;;;;;;2.13;81.18;96074.66;10297373;28;97870;-79
2022/01/08 13:30:49;;;;;;;;;;;;;;;1.91;81.10;96064.91;10293795;28;97069;-79
2022/01/08 13:35:58;;;;;;;;;;;;;;;1.97;80.95;96064.50;10298900;28;96835;-79
2022/01/08 13:41:08;;;;;;;;;;;;;;;1.79;81.09;96045.91;10292667;28;97060;-79
2022/01/08 13:46:12;;;;;;;;;;;;;;;1.70;81.50;96026.75;10297996;28;96687;-79
2022/01/08 13:51:16;;;;;;;;;;;;;;;1.63;81.75;96006.66;10278177;28;97012;-79
2022/01/08 13:56:22;;;;;;;;;;;;;;;1.63;82.31;95999.75;10294165;28;96790;-79
2022/01/08 14:01:37;;;;;;;;;;;;;;;1.58;81.59;96001.78;10296071;28;99622;-79
2022/01/08 14:06:41;;;;;;;;;;;;;;;1.60;81.24;95989.63;10292201;28;96918;-79
2022/01/08 14:11:44;;;;;;;;;;;;;;;1.58;81.38;95986.34;10299310;28;97424;-79
2022/01/08 14:16:48;;;;;;;;;;;;;;;1.58;81.25;95972.63;10295288;28;96908;-80
2022/01/08 14:21:55;;;;;;;;;;;;;;;1.62;82.08;95966.34;10294474;28;96797;-80
2022/01/08 14:27:01;;;;;;;;;;;;;;;1.70;80.21;95953.81;10296435;28;96736;-79
2022/01/08 14:32:07;;;;;;;;;;;;;;;1.79;80.64;95937.75;10295342;28;97101;-79
2022/01/08 14:37:14;;;;;;;;;;;;;;;1.84;81.09;95940.03;10294860;28;96882;-79
2022/01/08 14:42:17;;;;;;;;;;;;;;;1.91;80.70;95931.78;10277886;28;96800;-79
2022/01/08 14:47:34;;;;;;;;;;;;;;;1.92;80.63;95927.44;10294325;28;96883;-79
2022/01/08 14:52:38;;;;;;;;;;;;;;;1.64;80.90;95913.00;10294620;28;96763;-79
2022/01/08 14:57:41;;;;;;;;;;;;;;;1.52;81.38;95912.91;10288305;28;96860;-79
2022/01/08 15:02:45;;;;;;;;;;;;;;;1.58;80.99;95890.25;10298445;28;97168;-80
2022/01/08 15:07:49;;;;;;;;;;;;;;;1.62;80.72;95884.78;10294508;28;97023;-79
2022/01/08 15:12:52;;;;;;;;;;;;;;;1.50;80.52;95876.09;10291572;28;96716;-79
2022/01/08 15:17:56;;;;;;;;;;;;;;;1.45;80.68;95849.88;10295185;28;96756;-80
2022/01/08 15:23:06;;;;;;;;;;;;;;;1.43;80.59;95849.13;10293886;28;97057;-80
2022/01/08 15:28:08;;;;;;;;;;;;;;;1.40;80.22;95841.63;10294114;28;96764;-79
2022/01/08 15:33:12;;;;;;;;;;;;;;;1.46;80.80;95833.50;10292975;28;96865;-80
2022/01/08 15:38:16;;;;;;;;;;;;;;;1.41;80.02;95832.97;10294756;28;96753;-80
2022/01/08 15:43:18;;;;;;;;;;;;;;;1.40;80.00;95828.75;10294451;28;101671;-80
2022/01/08 15:48:22;;;;;;;;;;;;;;;1.37;80.56;95823.81;10292243;28;97380;-80
2022/01/08 15:53:25;;;;;;;;;;;;;;;1.37;79.93;95818.66;10295129;28;96936;-81
2022/01/08 15:58:28;;;;;;;;;;;;;;;1.29;79.81;95808.03;10292624;28;96862;-81
2022/01/08 16:03:32;;;;;;;;;;;;;;;1.16;80.14;95801.13;10289790;28;96952;-80
2022/01/08 16:08:37;;;;;;;;;;;;;;;1.06;80.54;95787.22;10296685;28;96760;-80
2022/01/08 16:13:40;;;;;;;;;;;;;;;1.03;80.95;95804.63;10293614;28;96845;-80
2022/01/08 16:18:44;;;;;;;;;;;;;;;0.96;81.33;95797.28;10289381;28;97062;-81
2022/01/08 16:23:48;;;;;;;;;;;;;;;1.01;81.00;95781.56;10295285;28;96845;-81
2022/01/08 16:28:50;;;;;;;;;;;;;;;0.92;80.64;95779.59;10291308;28;97644;-80
2022/01/08 16:33:55;;;;;;;;;;;;;;;0.86;80.75;95767.13;10289645;28;96706;-80
2022/01/08 16:38:59;;;;;;;;;;;;;;;0.89;80.90;95752.31;10293373;28;96728;-80
2022/01/08 16:44:01;;;;;;;;;;;;;;;0.88;80.86;95744.69;10291702;28;97426;-81
2022/01/08 16:49:06;;;;;;;;;;;;;;;0.85;80.75;95735.47;10291337;28;96896;-81
2022/01/08 16:54:10;;;;;;;;;;;;;;;0.86;81.01;95720.84;10294065;28;96838;-80
2022/01/08 16:59:14;;;;;;;;;;;;;;;0.82;80.33;95734.84;10297686;28;97089;-76
2022/01/08 17:04:18;;;;;;;;;;;;;;;0.80;80.51;95719.50;10293556;28;96937;-71
2022/01/08 17:09:21;;;;;;;;;;;;;;;0.82;80.55;95711.69;10291452;28;97254;-70
2022/01/08 17:14:24;;;;;;;;;;;;;;;0.73;80.73;95716.50;10296490;28;96996;-70
2022/01/08 17:19:28;;;;;;;;;;;;;;;0.63;81.38;95709.50;10292509;28;97122;-70
2022/01/08 17:24:30;;;;;;;;;;;;;;;0.53;81.31;95689.53;10292576;28;97261;-71
2022/01/08 17:29:33;;;;;;;;;;;;;;;0.45;81.86;95685.81;10298439;28;96762;-70
2022/01/08 17:34:37;;;;;;;;;;;;;;;0.48;81.46;95683.03;10296109;28;96783;-70
2022/01/08 17:39:39;;;;;;;;;;;;;;;0.43;81.72;95679.03;10290332;28;97045;-71
2022/01/08 17:44:43;;;;;;;;;;;;;;;0.42;81.20;95677.38;10297547;28;97002;-70
2022/01/08 17:49:47;;;;;;;;;;;;;;;0.38;81.53;95664.84;10289438;28;97903;-69
2022/01/08 17:54:50;;;;;;;;;;;;;;;0.40;81.59;95663.81;10291495;28;97587;-70
2022/01/08 17:59:53;;;;;;;;;;;;;;;0.45;81.25;95657.56;10291440;28;96869;-70
2022/01/08 18:04:57;;;;;;;;;;;;;;;0.47;81.32;95648.00;10287745;28;96807;-69
2022/01/08 18:10:00;;;;;;;;;;;;;;;0.47;81.17;95627.44;10287144;28;97149;-69
2022/01/08 18:15:03;;;;;;;;;;;;;;;0.40;81.43;95622.69;10290988;28;97010;-69
2022/01/08 18:20:09;;;;;;;;;;;;;;;0.37;80.95;95617.75;10289453;28;97536;-69
2022/01/08 18:25:13;;;;;;;;;;;;;;;0.35;81.72;95595.66;10287036;28;97651;-70
2022/01/08 18:30:17;;;;;;;;;;;;;;;0.25;81.68;95592.88;10289468;28;96920;-69
2022/01/08 18:35:21;;;;;;;;;;;;;;;0.17;81.99;95592.56;10291360;28;97301;-69
2022/01/08 18:40:25;;;;;;;;;;;;;;;0.13;82.34;95583.38;10294599;28;96933;-69
2022/01/08 18:45:30;;;;;;;;;;;;;;;0.18;82.08;95578.78;10293486;28;98587;-69
2022/01/08 18:50:34;;;;;;;;;;;;;;;0.16;82.36;95567.78;10296684;28;96840;-69
2022/01/08 18:55:37;;;;;;;;;;;;;;;0.08;82.39;95559.75;10294980;28;96786;-76
2022/01/08 19:00:43;;;;;;;;;;;;;;;0.09;82.26;95551.13;10288826;28;97476;-75
2022/01/08 19:05:47;;;;;;;;;;;;;;;0.07;82.33;95550.41;10297179;28;97561;-77
2022/01/08 19:10:51;;;;;;;;;;;;;;;0.01;82.25;95534.50;10294555;28;97172;-78
2022/01/08 19:15:54;;;;;;;;;;;;;;;-0.05;82.27;95519.47;10291896;28;96728;-70
2022/01/08 19:20:59;;;;;;;;;;;;;;;-0.18;82.84;95508.34;10294273;28;96740;-76
2022/01/08 19:26:02;;;;;;;;;;;;;;;-0.15;82.31;95493.59;10293943;28;96994;-77
2022/01/08 19:31:05;;;;;;;;;;;;;;;-0.22;82.90;95478.69;10292685;28;97038;-74
2022/01/08 19:36:09;;;;;;;;;;;;;;;-0.23;82.93;95461.63;10292706;28;97551;-74
2022/01/08 19:41:13;;;;;;;;;;;;;;;-0.21;83.03;95445.22;10287765;28;97265;-72
2022/01/08 19:46:16;;;;;;;;;;;;;;;-0.20;83.00;95417.78;10289261;28;96764;-72
2022/01/08 19:51:20;;;;;;;;;;;;;;;-0.21;83.05;95406.72;10276833;28;96872;-74
2022/01/08 19:56:24;;;;;;;;;;;;;;;-0.14;82.55;95396.84;10292862;28;97006;-74
2022/01/08 20:01:26;;;;;;;;;;;;;;;-0.11;82.85;95388.13;10292326;28;97494;-75
2022/01/08 20:06:31;;;;;;;;;;;;;;;-0.20;82.70;95371.59;10289252;28;96928;-75
2022/01/08 20:11:33;;;;;;;;;;;;;;;-0.19;82.90;95356.09;10294825;28;96794;-74
2022/01/08 20:16:36;;;;;;;;;;;;;;;-0.14;82.78;95337.81;10293383;28;97140;-74
2022/01/08 20:21:40;;;;;;;;;;;;;;;-0.18;82.90;95328.66;10287124;28;98197;-74
2022/01/08 20:26:43;;;;;;;;;;;;;;;-0.20;82.86;95310.81;10288165;28;97031;-75
2022/01/08 20:31:46;;;;;;;;;;;;;;;-0.24;83.55;95288.03;10297730;28;99631;-73
2022/01/08 20:36:50;;;;;;;;;;;;;;;-0.36;84.00;95259.69;10295103;28;96957;-73
2022/01/08 20:41:53;;;;;;;;;;;;;;;-0.34;83.21;95244.19;10299567;28;96827;-73
2022/01/08 20:46:55;;;;;;;;;;;;;;;-0.33;83.79;95220.19;10298571;28;97220;-73
2022/01/08 20:51:59;;;;;;;;;;;;;;;-0.33;84.20;95205.59;10298037;28;96772;-73
2022/01/08 20:57:02;;;;;;;;;;;;;;;-0.27;83.56;95185.56;10298518;28;96980;-73
2022/01/08 21:02:05;;;;;;;;;;;;;;;-0.22;82.95;95160.41;10297593;28;96934;-73
2022/01/08 21:07:10;;;;;;;;;;;;;;;-0.20;84.36;95141.41;10297583;28;97105;-73
2022/01/08 21:12:12;;;;;;;;;;;;;;;-0.20;84.48;95110.63;10280503;28;97814;-73
2022/01/08 21:17:15;;;;;;;;;;;;;;;-0.14;84.47;95094.75;10296564;28;96865;-73
2022/01/08 21:22:19;;;;;;;;;;;;;;;-0.17;84.84;95099.28;10297033;28;97112;-73
2022/01/08 21:27:27;;;;;;;;;;;;;;;-0.21;84.79;95082.47;10293590;28;97338;-73
2022/01/08 21:32:30;;;;;;;;;;;;;;;-0.12;85.06;95070.72;10292458;28;97098;-73
2022/01/08 21:37:36;;;;;;;;;;;;;;;-0.14;84.95;95065.72;10298302;28;96911;-73
2022/01/08 21:42:38;;;;;;;;;;;;;;;-0.11;85.28;95052.66;10287759;28;98526;-73
2022/01/08 21:47:42;;;;;;;;;;;;;;;-0.08;84.37;95026.75;10298205;28;98227;-73
2022/01/08 21:52:46;;;;;;;;;;;;;;;-0.07;84.54;95009.59;10297432;28;97271;-72
2022/01/08 21:57:49;;;;;;;;;;;;;;;0.00;84.44;95003.88;10294244;28;97250;-72
2022/01/08 22:02:53;;;;;;;;;;;;;;;0.05;84.79;95030.03;10292735;28;97233;-72
2022/01/08 22:07:57;;;;;;;;;;;;;;;0.14;84.29;95004.63;10292436;28;97305;-72
2022/01/08 22:13:00;;;;;;;;;;;;;;;0.19;84.10;94977.66;10289167;28;97128;-72
2022/01/08 22:18:03;;;;;;;;;;;;;;;0.25;84.14;94971.22;10292331;28;97049;-72
2022/01/08 22:23:07;;;;;;;;;;;;;;;0.33;84.23;94968.09;10282692;28;98629;-72
2022/01/08 22:28:10;;;;;;;;;;;;;;;0.35;84.31;94946.47;10296075;28;96931;-72
2022/01/08 22:33:13;;;;;;;;;;;;;;;0.43;84.72;94933.88;10277561;28;98148;-73
2022/01/08 22:38:17;;;;;;;;;;;;;;;0.47;85.02;94938.78;10286468;28;96854;-72
2022/01/08 22:43:20;;;;;;;;;;;;;;;0.57;84.70;94929.44;10290368;28;96919;-72
2022/01/08 22:48:23;;;;;;;;;;;;;;;0.59;84.84;94922.41;10292708;28;97056;-71
2022/01/08 22:53:27;;;;;;;;;;;;;;;0.63;84.81;94916.09;10289829;28;100175;-72
2022/01/08 22:58:30;;;;;;;;;;;;;;;0.57;85.10;94898.59;10289338;28;96931;-72
2022/01/08 23:03:33;;;;;;;;;;;;;;;0.60;84.99;94914.59;10291250;28;96831;-72
2022/01/08 23:08:37;;;;;;;;;;;;;;;0.70;84.71;94898.44;10292948;28;97091;-72
2022/01/08 23:13:40;;;;;;;;;;;;;;;0.73;84.61;94887.94;10285532;28;98663;-73
2022/01/08 23:18:43;;;;;;;;;;;;;;;0.77;85.66;94909.88;10286589;28;98643;-72
2022/01/08 23:23:47;;;;;;;;;;;;;;;0.80;85.60;94889.88;10289674;28;97149;-73
2022/01/08 23:28:49;;;;;;;;;;;;;;;0.92;85.09;94856.44;10287387;28;97034;-72
2022/01/08 23:33:52;;;;;;;;;;;;;;;0.95;85.45;94830.47;10290460;28;96752;-72
2022/01/08 23:38:56;;;;;;;;;;;;;;;0.94;84.47;94839.94;10290561;28;98478;-72
2022/01/08 23:43:59;;;;;;;;;;;;;;;0.90;84.32;94837.75;10287119;28;98412;-72
2022/01/08 23:49:04;;;;;;;;;;;;;;;0.87;84.71;94832.84;10284510;28;98173;-72
2022/01/08 23:54:08;;;;;;;;;;;;;;;0.95;84.43;94817.63;10287891;28;97326;-72
2022/01/08 23:59:11;;;;;;;;;;;;;;;0.89;85.53;94836.09;10283761;28;97308;-72
